Time;durP1;ratioP1;P1;durP2;ratioP2;P2;SDS_P1;SDS_P2;PMS_P1;PMS_P2;Temp;Humidity;BMP_temperature;BMP_pressure;BME280_temperature;BME280_humidity;BME280_pressure;Samples;Min_cycle;Max_cycle;Signal;HPM_P1;HPM_P2
2022/10/21 05:41:23;;;;;;;1.42;1.10;;;;;;;20.93;56.60;98799.82;1913281;72;28035;-70
2022/10/21 05:44:12;;;;;;;1.42;1.10;;;;;;;21.29;56.09;98811.80;1889208;75;28021;-70
2022/10/21 05:47:00;;;;;;;4.60;1.50;;;;;;;22.14;53.75;98819.45;1875942;75;28153;-71
2022/10/21 05:49:48;;;;;;;2.33;1.32;;;;;;;22.88;52.27;98814.59;1886115;75;28117;-71
2022/10/21 05:52:38;;;;;;;2.20;1.30;;;;;;;23.46;51.03;98816.20;1875520;75;28041;-71
2022/10/21 05:55:26;;;;;;;2.80;1.22;;;;;;;23.90;49.93;98810.92;1880569;75;28114;-71
2022/10/21 05:58:15;;;;;;;1.62;1.20;;;;;;;24.25;49.04;98813.76;1872865;75;28219;-72
2022/10/21 06:01:03;;;;;;;1.17;1.10;;;;;;;24.56;48.37;98825.23;1869545;76;28138;-72
2022/10/21 06:03:52;;;;;;;1.85;1.47;;;;;;;24.80;47.78;98824.34;1872353;75;28072;-73
2022/10/21 06:06:40;;;;;;;1.37;1.35;;;;;;;25.04;47.35;98828.34;1844772;76;28208;-72
2022/10/21 06:09:28;;;;;;;1.25;1.22;;;;;;;25.19;46.90;98828.41;1868955;76;28261;-71
2022/10/21 06:12:16;;;;;;;1.40;1.25;;;;;;;25.33;46.57;98835.91;1877516;75;28610;-75
2022/10/21 06:15:05;;;;;;;1.80;1.10;;;;;;;25.44;46.24;98844.23;1857609;74;28264;-74
2022/10/21 06:17:53;;;;;;;3.50;1.10;;;;;;;25.56;46.15;98849.77;1867355;74;28248;-74
2022/10/21 06:20:42;;;;;;;1.43;1.20;;;;;;;25.70;45.80;98856.42;1869211;75;28127;-73
2022/10/21 06:23:30;;;;;;;1.40;1.30;;;;;;;25.79;45.47;98861.67;1867883;75;28141;-74
2022/10/21 06:26:19;;;;;;;2.95;1.20;;;;;;;25.86;45.09;98866.37;1868374;75;28140;-74
2022/10/21 06:29:07;;;;;;;1.75;1.00;;;;;;;25.96;44.60;98877.41;1863509;74;28160;-74
2022/10/21 06:31:55;;;;;;;2.00;1.22;;;;;;;26.03;44.23;98886.23;1883685;75;28234;-74
2022/10/21 06:34:43;;;;;;;1.17;1.10;;;;;;;26.03;43.98;98877.14;1868839;75;28148;-74
2022/10/21 06:37:34;;;;;;;1.95;1.30;;;;;;;26.13;43.81;98888.22;1852776;75;28232;-74
2022/10/21 06:40:21;;;;;;;3.70;1.50;;;;;;;26.18;43.66;98886.02;1849286;76;28188;-75
2022/10/21 06:43:11;;;;;;;2.60;1.30;;;;;;;26.20;43.59;98886.03;1870137;76;28036;-74
2022/10/21 06:46:05;;;;;;;2.98;1.10;;;;;;;26.23;43.46;98887.41;1856720;75;28226;-74
2022/10/21 06:48:54;;;;;;;1.45;1.10;;;;;;;26.25;43.38;98897.59;1854221;75;28104;-73
2022/10/21 06:51:42;;;;;;;1.62;1.27;;;;;;;26.26;43.15;98912.45;1868963;76;28097;-73
2022/10/21 06:54:32;;;;;;;2.45;1.10;;;;;;;26.26;42.96;98911.09;1854642;77;28138;-73
2022/10/21 06:57:21;;;;;;;1.70;1.30;;;;;;;26.28;42.74;98918.52;1861599;76;28095;-73
2022/10/21 07:00:12;;;;;;;1.80;1.22;;;;;;;26.32;42.43;98932.58;1850508;76;28137;-73
2022/10/21 07:02:59;;;;;;;;;;;;;;;26.30;42.30;98938.92;1862937;75;31112;-73
2022/10/21 07:05:48;;;;;;;1.32;1.02;;;;;;;26.31;42.15;98946.89;1870436;75;28042;-74
2022/10/21 07:08:36;;;;;;;3.03;1.30;;;;;;;26.35;41.93;98967.27;1868674;76;28130;-74
2022/10/21 07:11:26;;;;;;;1.47;1.32;;;;;;;26.35;41.90;98967.84;1844525;76;28108;-74
2022/10/21 07:14:14;;;;;;;1.12;1.12;;;;;;;26.36;41.79;98976.37;1861678;76;28253;-73
2022/10/21 07:17:04;;;;;;;2.03;1.33;;;;;;;26.32;41.89;98976.09;1848291;76;28142;-73
2022/10/21 07:19:53;;;;;;;2.40;1.67;;;;;;;26.31;42.03;98984.06;1868870;76;28150;-73
2022/10/21 07:22:41;;;;;;;4.00;1.30;;;;;;;26.33;42.42;98986.54;1848003;77;32135;-73
2022/10/21 07:25:30;;;;;;;1.75;1.30;;;;;;;26.35;43.00;98994.81;1856501;76;28111;-73
2022/10/21 07:28:18;;;;;;;3.77;1.32;;;;;;;26.36;43.06;99002.53;1842861;77;28213;-73
2022/10/21 07:31:07;;;;;;;1.30;1.20;;;;;;;26.39;43.01;99006.97;1863706;76;28186;-74
2022/10/21 07:33:56;;;;;;;1.30;1.20;;;;;;;26.40;42.86;99020.99;1859771;76;28217;-75
2022/10/21 07:36:51;;;;;;;3.70;1.20;;;;;;;26.41;42.77;99027.34;1866324;76;28157;-75
2022/10/21 07:39:40;;;;;;;1.10;0.88;;;;;;;26.40;42.71;99035.30;1849106;77;28140;-73
2022/10/21 07:42:29;;;;;;;1.40;1.17;;;;;;;26.41;42.64;99039.19;1856065;76;28176;-73
2022/10/21 07:45:17;;;;;;;1.60;1.30;;;;;;;26.45;42.55;99046.34;1868039;76;28353;-74
2022/10/21 07:48:05;;;;;;;2.87;1.40;;;;;;;26.46;42.51;99067.30;1872637;76;28123;-73
2022/10/21 07:50:54;;;;;;;1.20;1.10;;;;;;;26.43;42.53;99078.30;1875912;75;28046;-72
2022/10/21 07:53:46;;;;;;;1.25;0.90;;;;;;;26.46;42.47;99089.33;1877824;76;28144;-74
2022/10/21 07:56:37;;;;;;;1.65;1.00;;;;;;;26.45;42.53;99098.67;1877533;76;28220;-74
2022/10/21 07:59:29;;;;;;;1.80;1.22;;;;;;;26.47;42.49;99104.73;1863739;75;28193;-73
2022/10/21 08:02:42;;;;;;;1.95;1.20;;;;;;;26.41;42.37;99107.20;1868407;74;28230;-74
2022/10/21 08:05:25;;;;;;;2.20;1.10;;;;;;;26.44;42.40;99125.96;1875725;76;28262;-73
2022/10/21 08:08:13;;;;;;;1.03;0.93;;;;;;;26.40;42.41;99139.42;1859255;74;28331;-72
2022/10/21 08:11:04;;;;;;;1.35;1.20;;;;;;;26.43;42.32;99129.80;1877841;76;28143;-72
2022/10/21 08:13:53;;;;;;;1.20;1.10;;;;;;;26.45;42.22;99132.56;1876569;76;28109;-72
2022/10/21 08:16:42;;;;;;;1.70;1.15;;;;;;;26.42;42.25;99128.16;1877655;76;28133;-72
2022/10/21 08:19:31;;;;;;;3.30;1.37;;;;;;;26.39;42.27;99138.33;1874892;76;28143;-71
2022/10/21 08:22:19;;;;;;;3.05;1.20;;;;;;;26.39;42.22;99127.30;1871534;75;28167;-72
2022/10/21 08:25:10;;;;;;;2.15;1.10;;;;;;;26.41;42.12;99138.88;1879043;75;28231;-72
2022/10/21 08:27:58;;;;;;;1.55;1.10;;;;;;;26.28;42.30;99154.52;1878925;75;28102;-73
2022/10/21 08:30:47;;;;;;;1.52;1.00;;;;;;;26.31;42.29;99153.96;1865869;76;28133;-73
2022/10/21 08:33:35;;;;;;;0.95;0.90;;;;;;;26.25;42.39;99164.14;1869593;76;28249;-73
2022/10/21 08:36:25;;;;;;;1.30;1.00;;;;;;;26.19;42.44;99169.32;1871601;76;28246;-73
2022/10/21 08:39:14;;;;;;;1.72;0.90;;;;;;;26.24;42.42;99175.41;1873470;75;28070;-71
2022/10/21 08:42:17;;;;;;;1.05;0.95;;;;;;;26.24;42.41;99191.92;1883991;75;28941;-72
2022/10/21 08:45:08;;;;;;;1.10;0.80;;;;;;;26.22;42.37;99194.95;1861599;75;28290;-72
2022/10/21 08:47:59;;;;;;;2.77;1.10;;;;;;;26.19;42.42;99189.97;1872052;75;28591;-72
2022/10/21 08:50:51;;;;;;;1.10;1.00;;;;;;;26.14;42.43;99167.10;1876316;76;28147;-72
2022/10/21 08:53:45;;;;;;;0.95;0.90;;;;;;;26.10;42.55;99154.40;1863620;76;28215;-72
2022/10/21 08:56:34;;;;;;;2.40;1.00;;;;;;;26.12;42.56;99170.09;1876084;75;30146;-72
2022/10/21 08:59:25;;;;;;;0.90;0.90;;;;;;;26.08;42.60;99170.33;1815715;77;28151;-73
2022/10/21 09:02:25;;;;;;;1.23;0.90;;;;;;;26.01;42.61;99176.06;1836986;77;28174;-71
2022/10/21 09:05:28;;;;;;;1.15;0.95;;;;;;;26.06;42.61;99182.16;1809224;78;28188;-72
2022/10/21 09:08:41;;;;;;;1.17;1.07;;;;;;;26.04;42.66;99168.63;1820547;78;28269;-72
2022/10/21 09:11:32;;;;;;;1.27;1.17;;;;;;;26.02;42.68;99148.80;1814922;78;28344;-72
2022/10/21 09:14:26;;;;;;;2.02;1.02;;;;;;;25.96;42.79;99147.13;1820833;78;28471;-71
2022/10/21 09:17:32;;;;;;;1.55;1.17;;;;;;;25.98;42.77;99167.49;1821133;78;28467;-72
2022/10/21 09:20:32;;;;;;;0.90;0.90;;;;;;;25.94;42.84;99161.70;1825046;78;28211;-72
2022/10/21 09:23:37;;;;;;;1.17;1.17;;;;;;;25.94;42.83;99153.98;1827892;78;28301;-71
2022/10/21 09:26:43;;;;;;;1.65;1.00;;;;;;;25.91;42.85;99144.33;1823545;78;28325;-72
2022/10/21 09:29:36;;;;;;;0.97;0.97;;;;;;;25.90;42.93;99141.86;1819945;78;28347;-72
2022/10/21 09:32:27;;;;;;;2.00;1.10;;;;;;;25.89;42.99;99128.64;1816449;78;28371;-72
2022/10/21 09:35:24;;;;;;;1.03;1.03;;;;;;;25.87;43.03;99139.63;1812992;78;28242;-73
2022/10/21 09:38:26;;;;;;;1.65;1.10;;;;;;;25.86;43.00;99146.21;1828058;78;28141;-73
2022/10/21 09:41:21;;;;;;;1.95;1.27;;;;;;;25.87;43.01;99151.47;1817287;78;28165;-72
2022/10/21 09:44:18;;;;;;;1.00;1.00;;;;;;;25.88;43.07;99150.36;1820823;77;28223;-72
2022/10/21 09:47:15;;;;;;;1.42;1.20;;;;;;;25.82;43.15;99145.92;1792714;77;28451;-72
2022/10/21 09:50:06;;;;;;;1.87;1.07;;;;;;;25.81;43.06;99140.13;1793951;79;28358;-73
2022/10/21 09:53:06;;;;;;;1.80;1.10;;;;;;;25.81;43.20;99155.26;1868609;76;28110;-73
2022/10/21 09:56:01;;;;;;;1.40;1.20;;;;;;;25.81;43.20;99148.37;1812554;78;28343;-73
2022/10/21 09:58:53;;;;;;;2.95;1.10;;;;;;;25.83;43.14;99136.59;1807696;77;28312;-73
2022/10/21 10:01:43;;;;;;;1.45;1.10;;;;;;;25.83;43.17;99147.59;1804261;78;32379;-72
2022/10/21 10:04:33;;;;;;;1.22;1.12;;;;;;;25.85;43.18;99140.44;1763690;80;28524;-72
2022/10/21 10:07:28;;;;;;;0.90;0.90;;;;;;;25.86;43.16;99137.95;1857454;76;28209;-72
2022/10/21 10:10:31;;;;;;;1.45;1.10;;;;;;;25.86;43.14;99147.05;1859951;76;28095;-73
2022/10/21 10:13:22;;;;;;;1.30;1.20;;;;;;;25.84;43.16;99136.02;1875665;75;28061;-72
2022/10/21 10:16:21;;;;;;;1.25;1.15;;;;;;;25.82;43.21;99134.92;1879323;75;28099;-73
2022/10/21 10:19:24;;;;;;;1.00;1.00;;;;;;;25.84;43.24;99131.89;1863583;76;28042;-73
2022/10/21 10:22:16;;;;;;;1.15;1.15;;;;;;;25.84;43.23;99126.39;1869588;76;28067;-72
2022/10/21 10:25:24;;;;;;;2.27;1.25;;;;;;;25.84;43.24;99138.77;1870474;75;28140;-73
2022/10/21 10:28:18;;;;;;;1.25;0.95;;;;;;;25.84;43.22;99129.14;1860895;75;28130;-72
2022/10/21 10:31:07;;;;;;;1.22;1.12;;;;;;;25.81;43.28;99122.23;1871577;75;28166;-71
2022/10/21 10:33:58;;;;;;;1.10;1.10;;;;;;;25.81;43.27;99120.86;1867895;75;28064;-71
2022/10/21 10:36:49;;;;;;;1.15;1.07;;;;;;;25.81;43.27;99123.61;1870295;76;28133;-72
2022/10/21 10:39:40;;;;;;;2.55;1.47;;;;;;;25.82;43.24;99136.83;1854171;75;28149;-71
2022/10/21 10:42:34;;;;;;;1.12;1.12;;;;;;;25.78;43.35;99134.34;1870476;75;28206;-74
2022/10/21 10:45:23;;;;;;;1.40;1.20;;;;;;;25.85;43.37;99121.18;1845620;76;28111;-73
2022/10/21 10:48:14;;;;;;;1.27;1.00;;;;;;;25.82;43.41;99114.28;1850561;77;28176;-71
2022/10/21 10:51:25;;;;;;;1.70;1.60;;;;;;;25.86;43.73;99100.27;1866097;76;28181;-69
2022/10/21 10:54:25;;;;;;;1.60;1.50;;;;;;;25.97;44.12;99102.01;1853061;77;28265;-72
2022/10/21 10:57:19;;;;;;;1.50;1.40;;;;;;;26.04;44.78;99090.19;1838300;77;28138;-70
2022/10/21 11:00:16;;;;;;;1.42;1.32;;;;;;;26.04;45.25;99068.16;1831038;77;28230;-73
2022/10/21 11:03:08;;;;;;;3.17;1.40;;;;;;;26.06;45.25;99047.27;1855125;75;28117;-73
2022/10/21 11:06:00;;;;;;;1.25;1.15;;;;;;;26.08;45.15;99046.45;1857530;76;28192;-73
2022/10/21 17:01:52;;;;;;;;;;;;;;;21.12;58.08;98809.55;1950550;72;20192;-76
2022/10/21 17:04:41;;;;;;;;;;;;;;;21.56;58.21;98824.36;1927639;73;20176;-78
2022/10/21 17:07:31;;;;;;;;;;;;;;;22.43;57.49;98815.55;1938448;73;20232;-75
2022/10/21 17:10:18;;;;;;;;;;;;;;;23.13;56.04;98814.39;1929775;73;20214;-78
2022/10/21 17:13:05;;;;;;;;;;;;;;;23.68;54.58;98836.75;1927634;73;20247;-83
2022/10/21 17:15:52;;;;;;;;;;;;;;;24.13;53.26;98835.88;1939213;73;20126;-77
2022/10/21 17:18:41;;;;;;;;;;;;;;;24.47;52.22;98820.80;1941160;73;20112;-79
2022/10/21 17:21:30;;;;;;;;;;;;;;;24.77;51.46;98822.95;1935210;73;20244;-79
2022/10/21 17:24:18;;;;;;;;;;;;;;;24.98;50.44;98815.66;1922018;73;20154;-78
2022/10/21 17:27:05;;;;;;;;;;;;;;;25.15;49.71;98815.77;1939069;73;20147;-73
2022/10/21 17:29:53;;;;;;;;;;;;;;;25.27;48.89;98822.41;1927746;73;20181;-73
